sensor_id;sensor_type;location;lat;lon;timestamp;pressure;altitude;pressure_sealevel;temperature;humidity
65553;BME280;52465;51.560;14.368;2022-09-21T00:03:37;101024.97;;;17.99;62.67
65553;BME280;52465;51.560;14.368;2022-09-21T00:06:08;101027.81;;;17.97;62.49
65553;BME280;52465;51.560;14.368;2022-09-21T00:08:34;101025.38;;;17.96;62.91
65553;BME280;52465;51.560;14.368;2022-09-21T00:11:00;101027.00;;;17.97;62.72
65553;BME280;52465;51.560;14.368;2022-09-21T00:13:26;101024.53;;;17.95;62.64
65553;BME280;52465;51.560;14.368;2022-09-21T00:15:55;101023.53;;;17.96;62.52
65553;BME280;52465;51.560;14.368;2022-09-21T00:18:22;101028.00;;;17.96;62.56
65553;BME280;52465;51.560;14.368;2022-09-21T00:20:47;101016.13;;;17.92;62.72
65553;BME280;52465;51.560;14.368;2022-09-21T00:23:14;101022.88;;;17.94;62.75
65553;BME280;52465;51.560;14.368;2022-09-21T00:25:39;101017.78;;;17.93;62.63
65553;BME280;52465;51.560;14.368;2022-09-21T00:28:04;101025.09;;;17.91;62.84
65553;BME280;52465;51.560;14.368;2022-09-21T00:30:30;101024.09;;;17.92;62.62
65553;BME280;52465;51.560;14.368;2022-09-21T00:32:55;101028.56;;;17.91;62.68
65553;BME280;52465;51.560;14.368;2022-09-21T00:35:20;101032.38;;;17.89;62.59
65553;BME280;52465;51.560;14.368;2022-09-21T00:37:46;101035.69;;;17.91;62.66
65553;BME280;52465;51.560;14.368;2022-09-21T00:40:11;101031.22;;;17.91;62.67
65553;BME280;52465;51.560;14.368;2022-09-21T00:42:37;101041.00;;;17.91;62.73
65553;BME280;52465;51.560;14.368;2022-09-21T00:45:03;101036.88;;;17.88;62.32
65553;BME280;52465;51.560;14.368;2022-09-21T00:47:39;101032.59;;;17.87;62.58
65553;BME280;52465;51.560;14.368;2022-09-21T00:50:13;101036.88;;;17.88;62.53
65553;BME280;52465;51.560;14.368;2022-09-21T00:52:44;101037.06;;;17.87;62.68
65553;BME280;52465;51.560;14.368;2022-09-21T00:55:20;101039.72;;;17.87;62.84
65553;BME280;52465;51.560;14.368;2022-09-21T00:57:50;101036.59;;;17.83;62.67
65553;BME280;52465;51.560;14.368;2022-09-21T01:00:18;101036.44;;;17.85;62.74
65553;BME280;52465;51.560;14.368;2022-09-21T01:02:44;101030.50;;;17.83;62.38
65553;BME280;52465;51.560;14.368;2022-09-21T01:05:10;101031.97;;;17.85;62.68
65553;BME280;52465;51.560;14.368;2022-09-21T01:07:41;101036.44;;;17.85;62.59
65553;BME280;52465;51.560;14.368;2022-09-21T01:10:11;101042.09;;;17.82;62.63
65553;BME280;52465;51.560;14.368;2022-09-21T01:12:53;101040.25;;;17.82;62.51
65553;BME280;52465;51.560;14.368;2022-09-21T01:15:46;101043.72;;;17.83;62.59
65553;BME280;52465;51.560;14.368;2022-09-21T01:18:36;101046.56;;;17.81;62.62
65553;BME280;52465;51.560;14.368;2022-09-21T01:21:23;101051.41;;;17.78;62.45
65553;BME280;52465;51.560;14.368;2022-09-21T01:26:42;101057.34;;;17.80;62.50
65553;BME280;52465;51.560;14.368;2022-09-21T01:29:21;101052.22;;;17.78;62.56
65553;BME280;52465;51.560;14.368;2022-09-21T01:31:54;101053.03;;;17.79;62.52
65553;BME280;52465;51.560;14.368;2022-09-21T01:34:27;101057.72;;;17.77;62.64
65553;BME280;52465;51.560;14.368;2022-09-21T01:36:57;101056.06;;;17.76;62.81
65553;BME280;52465;51.560;14.368;2022-09-21T01:39:25;101054.25;;;17.76;62.71
65553;BME280;52465;51.560;14.368;2022-09-21T01:41:54;101056.91;;;17.76;62.56
65553;BME280;52465;51.560;14.368;2022-09-21T01:44:26;101057.72;;;17.77;62.60
65553;BME280;52465;51.560;14.368;2022-09-21T01:46:55;101058.09;;;17.74;62.84
65553;BME280;52465;51.560;14.368;2022-09-21T01:49:29;101050.16;;;17.74;62.45
65553;BME280;52465;51.560;14.368;2022-09-21T01:52:00;101055.44;;;17.74;62.66
65553;BME280;52465;51.560;14.368;2022-09-21T01:54:34;101059.75;;;17.75;62.67
65553;BME280;52465;51.560;14.368;2022-09-21T01:57:18;101058.09;;;17.74;62.66
65553;BME280;52465;51.560;14.368;2022-09-21T01:59:53;101063.41;;;17.74;62.58
65553;BME280;52465;51.560;14.368;2022-09-21T02:02:41;101057.41;;;17.71;62.83
65553;BME280;52465;51.560;14.368;2022-09-21T02:05:10;101057.25;;;17.73;62.72
65553;BME280;52465;51.560;14.368;2022-09-21T02:07:36;101060.06;;;17.71;62.65
65553;BME280;52465;51.560;14.368;2022-09-21T02:10:06;101061.06;;;17.70;62.48
65553;BME280;52465;51.560;14.368;2022-09-21T02:12:33;101066.38;;;17.70;62.59
65553;BME280;52465;51.560;14.368;2022-09-21T02:14:59;101062.06;;;17.69;62.66
65553;BME280;52465;51.560;14.368;2022-09-21T02:17:33;101063.09;;;17.68;62.73
65553;BME280;52465;51.560;14.368;2022-09-21T02:26:04;101075.50;;;17.68;62.74
65553;BME280;52465;51.560;14.368;2022-09-21T02:28:52;101077.31;;;17.67;62.68
65553;BME280;52465;51.560;14.368;2022-09-21T02:31:38;101078.16;;;17.68;62.69
65553;BME280;52465;51.560;14.368;2022-09-21T02:36:57;101078.31;;;17.66;62.40
65553;BME280;52465;51.560;14.368;2022-09-21T02:42:08;101069.75;;;17.64;62.48
65553;BME280;52465;51.560;14.368;2022-09-21T02:44:40;101078.88;;;17.62;62.50
65553;BME280;52465;51.560;14.368;2022-09-21T02:47:13;101076.88;;;17.64;62.50
65553;BME280;52465;51.560;14.368;2022-09-21T02:49:48;101080.53;;;17.63;62.46
65553;BME280;52465;51.560;14.368;2022-09-21T02:52:17;101077.88;;;17.63;62.75
65553;BME280;52465;51.560;14.368;2022-09-21T02:54:48;101077.22;;;17.61;62.70
65553;BME280;52465;51.560;14.368;2022-09-21T02:57:15;101077.06;;;17.62;62.55
65553;BME280;52465;51.560;14.368;2022-09-21T02:59:41;101085.63;;;17.64;62.56
65553;BME280;52465;51.560;14.368;2022-09-21T03:02:09;101088.63;;;17.61;62.57
65553;BME280;52465;51.560;14.368;2022-09-21T03:04:35;101089.44;;;17.62;62.60
65553;BME280;52465;51.560;14.368;2022-09-21T03:07:00;101090.47;;;17.61;62.70
65553;BME280;52465;51.560;14.368;2022-09-21T03:09:26;101097.59;;;17.60;62.55
65553;BME280;52465;51.560;14.368;2022-09-21T03:11:51;101095.94;;;17.59;62.71
65553;BME280;52465;51.560;14.368;2022-09-21T03:14:16;101091.84;;;17.57;62.61
65553;BME280;52465;51.560;14.368;2022-09-21T03:16:42;101093.50;;;17.58;62.78
65553;BME280;52465;51.560;14.368;2022-09-21T03:19:09;101096.97;;;17.58;62.76
65553;BME280;52465;51.560;14.368;2022-09-21T03:21:34;101094.31;;;17.58;62.54
65553;BME280;52465;51.560;14.368;2022-09-21T03:23:59;101091.00;;;17.56;62.72
65553;BME280;52465;51.560;14.368;2022-09-21T03:26:24;101097.16;;;17.57;62.69
65553;BME280;52465;51.560;14.368;2022-09-21T03:28:50;101092.00;;;17.55;62.68
65553;BME280;52465;51.560;14.368;2022-09-21T03:31:17;101093.03;;;17.54;62.72
65553;BME280;52465;51.560;14.368;2022-09-21T03:33:42;101091.00;;;17.56;62.76
65553;BME280;52465;51.560;14.368;2022-09-21T03:36:08;101095.47;;;17.56;62.92
65553;BME280;52465;51.560;14.368;2022-09-21T03:38:34;101099.13;;;17.55;62.80
65553;BME280;52465;51.560;14.368;2022-09-21T03:41:00;101100.16;;;17.54;62.81
65553;BME280;52465;51.560;14.368;2022-09-21T03:43:25;101097.50;;;17.54;62.69
65553;BME280;52465;51.560;14.368;2022-09-21T03:45:51;101097.69;;;17.52;62.70
65553;BME280;52465;51.560;14.368;2022-09-21T03:48:17;101104.44;;;17.55;62.84
65553;BME280;52465;51.560;14.368;2022-09-21T03:50:42;101101.78;;;17.55;62.73
65553;BME280;52465;51.560;14.368;2022-09-21T03:53:08;101104.00;;;17.51;62.55
65553;BME280;52465;51.560;14.368;2022-09-21T03:55:34;101097.69;;;17.52;62.64
65553;BME280;52465;51.560;14.368;2022-09-21T03:57:59;101105.63;;;17.52;62.48
65553;BME280;52465;51.560;14.368;2022-09-21T04:00:25;101106.44;;;17.53;62.65
65553;BME280;52465;51.560;14.368;2022-09-21T04:02:50;101112.75;;;17.52;62.79
65553;BME280;52465;51.560;14.368;2022-09-21T04:05:16;101116.22;;;17.52;62.73
65553;BME280;52465;51.560;14.368;2022-09-21T04:07:42;101118.88;;;17.52;62.62
65553;BME280;52465;51.560;14.368;2022-09-21T04:10:11;101113.56;;;17.52;62.66
65553;BME280;52465;51.560;14.368;2022-09-21T04:12:37;101109.44;;;17.50;62.84
65553;BME280;52465;51.560;14.368;2022-09-21T04:15:04;101114.94;;;17.48;62.70
65553;BME280;52465;51.560;14.368;2022-09-21T04:17:32;101106.34;;;17.46;62.82
65553;BME280;52465;51.560;14.368;2022-09-21T04:19:58;101113.09;;;17.49;62.85
65553;BME280;52465;51.560;14.368;2022-09-21T04:22:23;101112.09;;;17.50;62.74
65553;BME280;52465;51.560;14.368;2022-09-21T04:24:49;101120.22;;;17.48;62.62
65553;BME280;52465;51.560;14.368;2022-09-21T04:27:14;101119.41;;;17.48;62.84
65553;BME280;52465;51.560;14.368;2022-09-21T04:29:39;101118.59;;;17.47;62.73
65553;BME280;52465;51.560;14.368;2022-09-21T04:32:05;101119.41;;;17.48;62.76
65553;BME280;52465;51.560;14.368;2022-09-21T04:34:30;101123.06;;;17.47;62.80
65553;BME280;52465;51.560;14.368;2022-09-21T04:36:57;101123.06;;;17.47;62.90
65553;BME280;52465;51.560;14.368;2022-09-21T04:39:23;101120.41;;;17.47;62.79
65553;BME280;52465;51.560;14.368;2022-09-21T04:41:49;101127.53;;;17.46;62.67
65553;BME280;52465;51.560;14.368;2022-09-21T04:44:14;101126.72;;;17.45;62.79
65553;BME280;52465;51.560;14.368;2022-09-21T04:46:39;101125.03;;;17.44;62.54
65553;BME280;52465;51.560;14.368;2022-09-21T04:49:06;101127.69;;;17.44;62.85
65553;BME280;52465;51.560;14.368;2022-09-21T04:51:32;101136.44;;;17.45;62.63
65553;BME280;52465;51.560;14.368;2022-09-21T04:53:58;101142.75;;;17.44;62.78
65553;BME280;52465;51.560;14.368;2022-09-21T04:56:23;101138.47;;;17.43;62.90
65553;BME280;52465;51.560;14.368;2022-09-21T04:58:49;101139.28;;;17.43;62.88
65553;BME280;52465;51.560;14.368;2022-09-21T05:01:14;101148.03;;;17.44;62.82
65553;BME280;52465;51.560;14.368;2022-09-21T05:03:39;101149.06;;;17.43;62.87
65553;BME280;52465;51.560;14.368;2022-09-21T05:06:05;101147.41;;;17.42;62.81
65553;BME280;52465;51.560;14.368;2022-09-21T05:08:30;101148.44;;;17.41;62.83
65553;BME280;52465;51.560;14.368;2022-09-21T05:11:16;101153.53;;;17.42;62.59
65553;BME280;52465;51.560;14.368;2022-09-21T05:13:45;101158.00;;;17.42;62.69
65553;BME280;52465;51.560;14.368;2022-09-21T05:16:10;101144.13;;;17.40;62.76
65553;BME280;52465;51.560;14.368;2022-09-21T05:18:36;101146.94;;;17.38;62.68
65553;BME280;52465;51.560;14.368;2022-09-21T05:21:02;101151.06;;;17.41;62.82
65553;BME280;52465;51.560;14.368;2022-09-21T05:23:29;101148.59;;;17.39;62.84
65553;BME280;52465;51.560;14.368;2022-09-21T05:25:55;101153.06;;;17.39;62.85
65553;BME280;52465;51.560;14.368;2022-09-21T05:28:24;101154.06;;;17.38;62.66
65553;BME280;52465;51.560;14.368;2022-09-21T05:33:49;101163.84;;;17.37;62.79
65553;BME280;52465;51.560;14.368;2022-09-21T05:38:53;101162.00;;;17.38;62.88
65553;BME280;52465;51.560;14.368;2022-09-21T05:41:19;101159.53;;;17.36;62.83
65553;BME280;52465;51.560;14.368;2022-09-21T05:43:44;101171.97;;;17.36;62.74
65553;BME280;52465;51.560;14.368;2022-09-21T05:48:58;101172.78;;;17.36;62.79
65553;BME280;52465;51.560;14.368;2022-09-21T05:51:36;101169.31;;;17.36;62.70
65553;BME280;52465;51.560;14.368;2022-09-21T05:54:11;101169.94;;;17.38;62.89
65553;BME280;52465;51.560;14.368;2022-09-21T05:57:04;101170.13;;;17.36;62.83
65553;BME280;52465;51.560;14.368;2022-09-21T05:59:50;101163.00;;;17.37;62.74
65553;BME280;52465;51.560;14.368;2022-09-21T06:02:57;101172.78;;;17.36;62.85
65553;BME280;52465;51.560;14.368;2022-09-21T06:05:28;101175.44;;;17.36;62.74
65553;BME280;52465;51.560;14.368;2022-09-21T06:07:54;101173.78;;;17.35;62.66
65553;BME280;52465;51.560;14.368;2022-09-21T06:10:19;101176.25;;;17.37;62.78
65553;BME280;52465;51.560;14.368;2022-09-21T06:12:44;101179.22;;;17.34;62.81
65553;BME280;52465;51.560;14.368;2022-09-21T06:15:12;101188.66;;;17.36;62.83
65553;BME280;52465;51.560;14.368;2022-09-21T06:17:38;101177.44;;;17.34;62.67
65553;BME280;52465;51.560;14.368;2022-09-21T06:20:04;101179.06;;;17.35;62.81
65553;BME280;52465;51.560;14.368;2022-09-21T06:22:31;101181.88;;;17.34;62.63
65553;BME280;52465;51.560;14.368;2022-09-21T06:24:56;101176.78;;;17.32;62.78
65553;BME280;52465;51.560;14.368;2022-09-21T06:27:21;101172.31;;;17.33;62.98
65553;BME280;52465;51.560;14.368;2022-09-21T06:29:46;101174.94;;;17.33;62.31
65553;BME280;52465;51.560;14.368;2022-09-21T06:32:12;101177.44;;;17.34;62.86
65553;BME280;52465;51.560;14.368;2022-09-21T06:34:37;101174.31;;;17.31;62.71
65553;BME280;52465;51.560;14.368;2022-09-21T06:37:02;101183.56;;;17.35;62.86
65553;BME280;52465;51.560;14.368;2022-09-21T06:39:28;101189.66;;;17.35;62.91
65553;BME280;52465;51.560;14.368;2022-09-21T06:41:53;101184.53;;;17.34;62.82
65553;BME280;52465;51.560;14.368;2022-09-21T06:44:19;101186.53;;;17.32;62.62
65553;BME280;52465;51.560;14.368;2022-09-21T06:46:44;101191.50;;;17.35;62.72
65553;BME280;52465;51.560;14.368;2022-09-21T06:49:09;101193.31;;;17.34;62.54
65553;BME280;52465;51.560;14.368;2022-09-21T06:51:35;101191.50;;;17.35;62.43
65553;BME280;52465;51.560;14.368;2022-09-21T06:54:00;101183.72;;;17.33;62.50
65553;BME280;52465;51.560;14.368;2022-09-21T06:56:25;101194.13;;;17.35;62.72
65553;BME280;52465;51.560;14.368;2022-09-21T06:58:51;101190.66;;;17.34;62.76
65553;BME280;52465;51.560;14.368;2022-09-21T07:01:17;101197.75;;;17.34;62.43
65553;BME280;52465;51.560;14.368;2022-09-21T07:03:43;101201.31;;;17.26;62.34
65553;BME280;52465;51.560;14.368;2022-09-21T07:06:10;101212.06;;;17.25;62.67
65553;BME280;52465;51.560;14.368;2022-09-21T07:08:36;101208.75;;;17.23;62.62
65553;BME280;52465;51.560;14.368;2022-09-21T07:11:02;101212.25;;;17.23;62.24
65553;BME280;52465;51.560;14.368;2022-09-21T07:13:28;101216.69;;;17.23;62.56
65553;BME280;52465;51.560;14.368;2022-09-21T07:15:53;101213.09;;;17.24;62.48
65553;BME280;52465;51.560;14.368;2022-09-21T07:18:19;101213.09;;;17.24;62.37
65553;BME280;52465;51.560;14.368;2022-09-21T07:20:45;101214.72;;;17.25;62.41
65553;BME280;52465;51.560;14.368;2022-09-21T07:23:15;101214.72;;;17.25;62.37
65553;BME280;52465;51.560;14.368;2022-09-21T07:25:41;101213.09;;;17.24;62.24
65553;BME280;52465;51.560;14.368;2022-09-21T07:28:08;101220.84;;;17.25;62.21
65553;BME280;52465;51.560;14.368;2022-09-21T07:30:35;101216.56;;;17.24;62.28
65553;BME280;52465;51.560;14.368;2022-09-21T07:33:00;101231.25;;;17.27;62.15
65553;BME280;52465;51.560;14.368;2022-09-21T07:35:25;101226.94;;;17.26;62.08
65553;BME280;52465;51.560;14.368;2022-09-21T07:37:50;101226.13;;;17.25;62.31
65553;BME280;52465;51.560;14.368;2022-09-21T07:40:16;101230.41;;;17.26;62.39
65553;BME280;52465;51.560;14.368;2022-09-21T07:42:41;101221.66;;;17.26;62.15
65553;BME280;52465;51.560;14.368;2022-09-21T07:45:09;101232.88;;;17.28;62.22
65553;BME280;52465;51.560;14.368;2022-09-21T07:47:34;101232.88;;;17.28;62.25
65553;BME280;52465;51.560;14.368;2022-09-21T07:50:00;101229.25;;;17.29;62.13
65553;BME280;52465;51.560;14.368;2022-09-21T07:52:28;101224.94;;;17.28;62.13
65553;BME280;52465;51.560;14.368;2022-09-21T07:54:53;101228.41;;;17.28;62.24
65553;BME280;52465;51.560;14.368;2022-09-21T07:57:18;101226.63;;;17.29;61.98
65553;BME280;52465;51.560;14.368;2022-09-21T08:00:03;101228.25;;;17.30;62.17
65553;BME280;52465;51.560;14.368;2022-09-21T08:02:28;101226.44;;;17.30;62.11
65553;BME280;52465;51.560;14.368;2022-09-21T08:04:55;101235.19;;;17.31;62.15
65553;BME280;52465;51.560;14.368;2022-09-21T08:07:20;101234.38;;;17.30;62.29
65553;BME280;52465;51.560;14.368;2022-09-21T08:09:46;101232.72;;;17.29;62.19
65553;BME280;52465;51.560;14.368;2022-09-21T08:12:14;101228.25;;;17.30;62.19
65553;BME280;52465;51.560;14.368;2022-09-21T08:14:41;101229.91;;;17.31;62.30
65553;BME280;52465;51.560;14.368;2022-09-21T08:17:08;101229.91;;;17.31;62.29
65553;BME280;52465;51.560;14.368;2022-09-21T08:19:33;101228.88;;;17.32;62.23
65553;BME280;52465;51.560;14.368;2022-09-21T08:22:00;101237.47;;;17.34;62.61
65553;BME280;52465;51.560;14.368;2022-09-21T08:24:25;101234.19;;;17.32;62.17
65553;BME280;52465;51.560;14.368;2022-09-21T08:26:50;101228.88;;;17.32;62.21
65553;BME280;52465;51.560;14.368;2022-09-21T08:29:16;101234.00;;;17.33;62.18
65553;BME280;52465;51.560;14.368;2022-09-21T08:31:42;101221.78;;;17.32;62.29
65553;BME280;52465;51.560;14.368;2022-09-21T08:34:08;101219.31;;;17.31;62.42
65553;BME280;52465;51.560;14.368;2022-09-21T08:36:33;101231.19;;;17.35;62.22
65553;BME280;52465;51.560;14.368;2022-09-21T08:38:58;101237.31;;;17.35;62.23
65553;BME280;52465;51.560;14.368;2022-09-21T08:44:10;101232.84;;;17.36;62.22
65553;BME280;52465;51.560;14.368;2022-09-21T08:46:40;101231.84;;;17.37;62.28
65553;BME280;52465;51.560;14.368;2022-09-21T08:49:18;101234.47;;;17.37;62.26
65553;BME280;52465;51.560;14.368;2022-09-21T08:51:55;101234.66;;;17.35;62.29
65553;BME280;52465;51.560;14.368;2022-09-21T08:57:15;101239.59;;;17.38;62.21
65553;BME280;52465;51.560;14.368;2022-09-21T08:59:44;101243.06;;;17.39;62.22
65553;BME280;52465;51.560;14.368;2022-09-21T09:02:28;101243.88;;;17.39;62.31
65553;BME280;52465;51.560;14.368;2022-09-21T09:08:05;101243.72;;;17.41;62.30
65553;BME280;52465;51.560;14.368;2022-09-21T09:13:35;101244.34;;;17.43;62.11
65553;BME280;52465;51.560;14.368;2022-09-21T09:16:09;101237.22;;;17.43;62.01
65553;BME280;52465;51.560;14.368;2022-09-21T09:18:57;101241.53;;;17.44;62.21
65553;BME280;52465;51.560;14.368;2022-09-21T09:21:33;101239.06;;;17.43;62.42
65553;BME280;52465;51.560;14.368;2022-09-21T09:24:11;101243.53;;;17.42;62.16
65553;BME280;52465;51.560;14.368;2022-09-21T09:26:43;101248.50;;;17.45;62.28
65553;BME280;52465;51.560;14.368;2022-09-21T09:31:47;101236.91;;;17.47;62.24
65553;BME280;52465;51.560;14.368;2022-09-21T09:34:17;101231.75;;;17.45;62.32
65553;BME280;52465;51.560;14.368;2022-09-21T09:36:47;101231.59;;;17.47;62.27
65553;BME280;52465;51.560;14.368;2022-09-21T09:39:15;101243.81;;;17.48;62.17
65553;BME280;52465;51.560;14.368;2022-09-21T09:50:04;101235.06;;;17.47;62.27
65553;BME280;52465;51.560;14.368;2022-09-21T09:52:31;101239.69;;;17.45;62.36
65553;BME280;52465;51.560;14.368;2022-09-21T09:55:13;101234.41;;;17.45;62.32
65553;BME280;52465;51.560;14.368;2022-09-21T09:57:39;101242.00;;;17.48;62.18
65553;BME280;52465;51.560;14.368;2022-09-21T10:00:11;101239.16;;;17.50;62.21
65553;BME280;52465;51.560;14.368;2022-09-21T10:02:55;101240.00;;;17.50;62.38
65553;BME280;52465;51.560;14.368;2022-09-21T10:05:31;101236.38;;;17.51;62.31
65553;BME280;52465;51.560;14.368;2022-09-21T10:07:57;101234.69;;;17.50;62.29
65553;BME280;52465;51.560;14.368;2022-09-21T10:12:56;101236.38;;;17.51;62.30
65553;BME280;52465;51.560;14.368;2022-09-21T10:15:26;101233.34;;;17.54;62.13
65553;BME280;52465;51.560;14.368;2022-09-21T10:18:26;101229.06;;;17.53;62.32
65553;BME280;52465;51.560;14.368;2022-09-21T10:20:59;101230.69;;;17.54;62.25
65553;BME280;52465;51.560;14.368;2022-09-21T10:23:26;101224.59;;;17.54;62.30
65553;BME280;52465;51.560;14.368;2022-09-21T10:25:57;101221.94;;;17.54;62.19
65553;BME280;52465;51.560;14.368;2022-09-21T10:28:23;101218.47;;;17.53;62.11
65553;BME280;52465;51.560;14.368;2022-09-21T10:31:17;101225.22;;;17.56;62.37
65553;BME280;52465;51.560;14.368;2022-09-21T10:33:51;101219.91;;;17.56;62.24
65553;BME280;52465;51.560;14.368;2022-09-21T10:36:33;101216.00;;;17.52;62.56
65553;BME280;52465;51.560;14.368;2022-09-21T10:39:23;101227.88;;;17.56;62.24
65553;BME280;52465;51.560;14.368;2022-09-21T10:42:01;101221.59;;;17.57;62.34
65553;BME280;52465;51.560;14.368;2022-09-21T10:44:47;101227.03;;;17.55;62.31
65553;BME280;52465;51.560;14.368;2022-09-21T10:47:15;101221.59;;;17.57;62.33
65553;BME280;52465;51.560;14.368;2022-09-21T10:49:45;101223.38;;;17.56;62.23
65553;BME280;52465;51.560;14.368;2022-09-21T10:52:11;101221.75;;;17.55;62.31
65553;BME280;52465;51.560;14.368;2022-09-21T10:54:38;101217.28;;;17.56;62.31
65553;BME280;52465;51.560;14.368;2022-09-21T10:57:14;101211.16;;;17.55;62.37
65553;BME280;52465;51.560;14.368;2022-09-21T10:59:40;101204.22;;;17.54;62.05
65553;BME280;52465;51.560;14.368;2022-09-21T11:02:26;101208.50;;;17.55;62.34
65553;BME280;52465;51.560;14.368;2022-09-21T11:04:59;101207.50;;;17.56;62.35
65553;BME280;52465;51.560;14.368;2022-09-21T11:07:42;101204.22;;;17.54;62.25
65553;BME280;52465;51.560;14.368;2022-09-21T11:10:18;101205.72;;;17.57;62.21
65553;BME280;52465;51.560;14.368;2022-09-21T11:12:55;101208.34;;;17.57;62.40
65553;BME280;52465;51.560;14.368;2022-09-21T11:15:53;101215.44;;;17.56;62.31
65553;BME280;52465;51.560;14.368;2022-09-21T11:18:42;101207.50;;;17.56;62.44
65553;BME280;52465;51.560;14.368;2022-09-21T11:21:16;101208.16;;;17.58;62.30
65553;BME280;52465;51.560;14.368;2022-09-21T11:24:08;101206.53;;;17.57;62.33
65553;BME280;52465;51.560;14.368;2022-09-21T11:26:50;101202.22;;;17.56;62.21
65553;BME280;52465;51.560;14.368;2022-09-21T11:29:24;101207.34;;;17.58;62.29
65553;BME280;52465;51.560;14.368;2022-09-21T11:32:21;101207.34;;;17.58;62.16
65553;BME280;52465;51.560;14.368;2022-09-21T11:35:17;101208.16;;;17.58;62.31
65553;BME280;52465;51.560;14.368;2022-09-21T11:37:49;101207.97;;;17.60;62.08
65553;BME280;52465;51.560;14.368;2022-09-21T11:43:20;101197.56;;;17.58;62.31
65553;BME280;52465;51.560;14.368;2022-09-21T11:48:33;101202.88;;;17.58;62.31
65553;BME280;52465;51.560;14.368;2022-09-21T11:53:36;101196.56;;;17.59;62.32
65553;BME280;52465;51.560;14.368;2022-09-21T11:56:37;101197.38;;;17.60;62.11
65553;BME280;52465;51.560;14.368;2022-09-21T11:59:41;101195.56;;;17.60;62.34
65553;BME280;52465;51.560;14.368;2022-09-21T12:05:14;101189.44;;;17.60;62.31
65553;BME280;52465;51.560;14.368;2022-09-21T12:13:20;101174.56;;;17.59;62.16
65553;BME280;52465;51.560;14.368;2022-09-21T12:18:29;101170.72;;;17.61;62.30
65553;BME280;52465;51.560;14.368;2022-09-21T12:21:28;101173.38;;;17.61;62.27
65553;BME280;52465;51.560;14.368;2022-09-21T12:23:58;101170.91;;;17.60;62.15
65553;BME280;52465;51.560;14.368;2022-09-21T12:26:35;101175.03;;;17.62;62.34
65553;BME280;52465;51.560;14.368;2022-09-21T12:29:09;101176.69;;;17.63;62.02
65553;BME280;52465;51.560;14.368;2022-09-21T12:34:39;101183.63;;;17.64;62.29
65553;BME280;52465;51.560;14.368;2022-09-21T12:37:14;101175.66;;;17.64;62.32
65553;BME280;52465;51.560;14.368;2022-09-21T12:39:48;101175.47;;;17.66;62.33
65553;BME280;52465;51.560;14.368;2022-09-21T12:42:32;101183.44;;;17.66;62.36
65553;BME280;52465;51.560;14.368;2022-09-21T12:45:22;101175.47;;;17.66;62.10
65553;BME280;52465;51.560;14.368;2022-09-21T12:47:54;101172.66;;;17.67;62.17
65553;BME280;52465;51.560;14.368;2022-09-21T12:50:36;101169.03;;;17.68;62.16
65553;BME280;52465;51.560;14.368;2022-09-21T12:53:03;101165.34;;;17.69;62.17
65553;BME280;52465;51.560;14.368;2022-09-21T12:55:41;101157.41;;;17.69;62.26
65553;BME280;52465;51.560;14.368;2022-09-21T13:01:07;101156.41;;;17.70;61.95
65553;BME280;52465;51.560;14.368;2022-09-21T13:03:43;101158.03;;;17.71;61.88
65553;BME280;52465;51.560;14.368;2022-09-21T13:09:11;101158.03;;;17.71;62.03
65553;BME280;52465;51.560;14.368;2022-09-21T13:11:55;101158.91;;;17.72;62.21
65553;BME280;52465;51.560;14.368;2022-09-21T13:14:24;101153.75;;;17.70;62.16
65553;BME280;52465;51.560;14.368;2022-09-21T13:16:57;101158.91;;;17.72;62.16
65553;BME280;52465;51.560;14.368;2022-09-21T13:19:26;101158.91;;;17.72;62.10
65553;BME280;52465;51.560;14.368;2022-09-21T13:24:46;101162.38;;;17.73;61.88
65553;BME280;52465;51.560;14.368;2022-09-21T13:27:54;101149.94;;;17.73;62.03
65553;BME280;52465;51.560;14.368;2022-09-21T13:32:53;101141.84;;;17.75;61.84
65553;BME280;52465;51.560;14.368;2022-09-21T13:35:51;101145.13;;;17.77;62.08
65553;BME280;52465;51.560;14.368;2022-09-21T13:43:47;101142.47;;;17.77;61.99
65553;BME280;52465;51.560;14.368;2022-09-21T13:49:13;101144.09;;;17.78;62.03
65553;BME280;52465;51.560;14.368;2022-09-21T13:52:00;101136.16;;;17.78;61.93
65553;BME280;52465;51.560;14.368;2022-09-21T13:54:31;101137.81;;;17.79;62.04
65553;BME280;52465;51.560;14.368;2022-09-21T13:57:04;101134.16;;;17.80;61.97
65553;BME280;52465;51.560;14.368;2022-09-21T13:59:34;101128.88;;;17.80;61.97
65553;BME280;52465;51.560;14.368;2022-09-21T14:02:01;101136.63;;;17.81;62.08
65553;BME280;52465;51.560;14.368;2022-09-21T14:04:32;101128.88;;;17.80;62.14
65553;BME280;52465;51.560;14.368;2022-09-21T14:07:03;101131.53;;;17.80;62.11
65553;BME280;52465;51.560;14.368;2022-09-21T14:09:40;101129.84;;;17.79;61.95
65553;BME280;52465;51.560;14.368;2022-09-21T14:12:10;101121.56;;;17.82;62.10
65553;BME280;52465;51.560;14.368;2022-09-21T14:14:41;101125.03;;;17.82;61.83
65553;BME280;52465;51.560;14.368;2022-09-21T14:17:34;101131.81;;;17.85;61.31
65553;BME280;52465;51.560;14.368;2022-09-21T14:19:59;101133.72;;;17.91;61.27
65553;BME280;52465;51.560;14.368;2022-09-21T14:25:22;101127.22;;;18.08;60.76
65553;BME280;52465;51.560;14.368;2022-09-21T14:27:49;101134.69;;;18.19;60.44
65553;BME280;52465;51.560;14.368;2022-09-21T14:30:21;101124.16;;;18.26;60.46
65553;BME280;52465;51.560;14.368;2022-09-21T14:35:40;101117.19;;;18.40;60.33
65553;BME280;52465;51.560;14.368;2022-09-21T14:38:30;101123.47;;;18.54;59.91